Startpagina
METAR-TAF:

METAR-TAF

Vliegvelden :

Reyes, Bolivia

breedte: 14-19S, lengte: 067-23W, hoogte: 140 m

Actueel weer

Dit bericht is 39 minuten geleden gemaakt, om 18:00 UTC
Wind 12 kt uit het noorden
Temperatuur 30°C
Vochtigheid 70%
Druk 1007 hPa
Zicht 10 km of meer
Gebroken wolken op 1600 ft

METAR: SLRY 121800Z 35012KT 9999 BKN016 30/24 Q1007

Tijdstip: 14:39 (18:39 UTC)


TAF: ontbreekt

Waarnemingen en weersverwachtingen van meer dan 4000 vliegvelden (METAR en TAF).

De beschikbare stations zijn de gele en rode punten op de kaart.

Ga met uw muis naar het station om de naam te zien.

Klik dan om waarnemingen en weersverwachtingen te zien.

kaart wijzigen: klik op de groene knoppen met een zwart kruis om in te zoomen, op de groene knop met een streepje om uit te zoomen of op de groene pijlen voor aangrenzende kaarten.


METAR-TAF: